sensor_id;sensor_type;location;lat;lon;timestamp;temperature;humidity
18934;DHT22;9599;53.706;10.384;2022-08-01T00:01:15;19.70;99.90
18934;DHT22;9599;53.706;10.384;2022-08-01T00:03:43;19.70;99.90
18934;DHT22;9599;53.706;10.384;2022-08-01T00:06:11;19.70;99.90
18934;DHT22;9599;53.706;10.384;2022-08-01T00:08:38;19.70;99.90
18934;DHT22;9599;53.706;10.384;2022-08-01T00:11:06;19.70;99.90
18934;DHT22;9599;53.706;10.384;2022-08-01T00:13:35;19.70;99.90
18934;DHT22;9599;53.706;10.384;2022-08-01T00:16:05;19.70;99.90
18934;DHT22;9599;53.706;10.384;2022-08-01T00:18:33;19.70;99.90
18934;DHT22;9599;53.706;10.384;2022-08-01T00:21:02;19.70;99.90
18934;DHT22;9599;53.706;10.384;2022-08-01T00:23:31;19.70;99.90
18934;DHT22;9599;53.706;10.384;2022-08-01T00:25:59;19.70;99.90
18934;DHT22;9599;53.706;10.384;2022-08-01T00:28:27;19.70;99.90
18934;DHT22;9599;53.706;10.384;2022-08-01T00:30:55;19.70;99.90
18934;DHT22;9599;53.706;10.384;2022-08-01T00:33:25;19.70;99.90
18934;DHT22;9599;53.706;10.384;2022-08-01T00:35:53;19.60;99.90
18934;DHT22;9599;53.706;10.384;2022-08-01T00:38:21;19.60;99.90
18934;DHT22;9599;53.706;10.384;2022-08-01T00:40:49;19.50;99.90
18934;DHT22;9599;53.706;10.384;2022-08-01T00:43:17;19.50;99.90
18934;DHT22;9599;53.706;10.384;2022-08-01T00:45:45;19.50;99.90
18934;DHT22;9599;53.706;10.384;2022-08-01T00:48:13;19.40;99.90
18934;DHT22;9599;53.706;10.384;2022-08-01T00:50:43;19.40;99.90
18934;DHT22;9599;53.706;10.384;2022-08-01T00:53:11;19.40;99.90
18934;DHT22;9599;53.706;10.384;2022-08-01T00:55:45;19.50;99.90
18934;DHT22;9599;53.706;10.384;2022-08-01T00:58:14;19.40;99.90
18934;DHT22;9599;53.706;10.384;2022-08-01T01:00:43;19.40;99.90
18934;DHT22;9599;53.706;10.384;2022-08-01T01:03:20;19.40;99.90
18934;DHT22;9599;53.706;10.384;2022-08-01T01:06:19;19.50;99.90
18934;DHT22;9599;53.706;10.384;2022-08-01T01:09:02;19.50;99.90
18934;DHT22;9599;53.706;10.384;2022-08-01T01:11:44;19.50;99.90
18934;DHT22;9599;53.706;10.384;2022-08-01T01:14:21;19.50;99.90
18934;DHT22;9599;53.706;10.384;2022-08-01T01:16:51;19.50;99.90
18934;DHT22;9599;53.706;10.384;2022-08-01T01:19:24;19.50;99.90
18934;DHT22;9599;53.706;10.384;2022-08-01T01:22:19;19.50;99.90
18934;DHT22;9599;53.706;10.384;2022-08-01T01:25:02;19.60;99.90
18934;DHT22;9599;53.706;10.384;2022-08-01T01:27:41;19.60;99.90
18934;DHT22;9599;53.706;10.384;2022-08-01T01:30:12;19.60;99.90
18934;DHT22;9599;53.706;10.384;2022-08-01T01:32:44;19.60;99.90
18934;DHT22;9599;53.706;10.384;2022-08-01T01:35:17;19.60;99.90
18934;DHT22;9599;53.706;10.384;2022-08-01T01:37:49;19.60;99.90
18934;DHT22;9599;53.706;10.384;2022-08-01T01:40:20;19.60;99.90
18934;DHT22;9599;53.706;10.384;2022-08-01T01:42:50;19.50;99.90
18934;DHT22;9599;53.706;10.384;2022-08-01T01:45:21;19.40;99.90
18934;DHT22;9599;53.706;10.384;2022-08-01T01:47:51;19.40;99.90
18934;DHT22;9599;53.706;10.384;2022-08-01T01:50:21;19.40;99.90
18934;DHT22;9599;53.706;10.384;2022-08-01T01:52:51;19.40;99.90
18934;DHT22;9599;53.706;10.384;2022-08-01T01:55:21;19.40;99.90
18934;DHT22;9599;53.706;10.384;2022-08-01T01:57:50;19.40;99.90
18934;DHT22;9599;53.706;10.384;2022-08-01T02:00:20;19.40;99.90
18934;DHT22;9599;53.706;10.384;2022-08-01T02:02:49;19.40;99.90
18934;DHT22;9599;53.706;10.384;2022-08-01T02:05:18;19.40;99.90
18934;DHT22;9599;53.706;10.384;2022-08-01T02:07:49;19.40;99.90
18934;DHT22;9599;53.706;10.384;2022-08-01T02:10:26;19.40;99.90
18934;DHT22;9599;53.706;10.384;2022-08-01T02:12:55;19.40;99.90
18934;DHT22;9599;53.706;10.384;2022-08-01T02:15:27;19.30;99.90
18934;DHT22;9599;53.706;10.384;2022-08-01T02:17:58;19.30;99.90
18934;DHT22;9599;53.706;10.384;2022-08-01T02:20:29;19.40;99.90
18934;DHT22;9599;53.706;10.384;2022-08-01T02:23:01;19.40;99.90
18934;DHT22;9599;53.706;10.384;2022-08-01T02:25:34;19.40;99.90
18934;DHT22;9599;53.706;10.384;2022-08-01T02:28:05;19.30;99.90
18934;DHT22;9599;53.706;10.384;2022-08-01T02:30:37;19.20;99.90
18934;DHT22;9599;53.706;10.384;2022-08-01T02:33:11;19.20;99.90
18934;DHT22;9599;53.706;10.384;2022-08-01T02:35:43;19.10;99.90
18934;DHT22;9599;53.706;10.384;2022-08-01T02:38:34;19.10;99.90
18934;DHT22;9599;53.706;10.384;2022-08-01T02:41:06;19.20;99.90
18934;DHT22;9599;53.706;10.384;2022-08-01T02:43:37;19.20;99.90
18934;DHT22;9599;53.706;10.384;2022-08-01T02:46:10;19.20;99.90
18934;DHT22;9599;53.706;10.384;2022-08-01T02:48:41;19.10;99.90
18934;DHT22;9599;53.706;10.384;2022-08-01T02:51:10;19.10;99.90
18934;DHT22;9599;53.706;10.384;2022-08-01T02:53:40;19.20;99.90
18934;DHT22;9599;53.706;10.384;2022-08-01T02:56:11;19.10;99.90
18934;DHT22;9599;53.706;10.384;2022-08-01T02:58:41;19.20;99.90
18934;DHT22;9599;53.706;10.384;2022-08-01T03:01:13;19.20;99.90
18934;DHT22;9599;53.706;10.384;2022-08-01T03:03:45;19.20;99.90
18934;DHT22;9599;53.706;10.384;2022-08-01T03:06:14;19.20;99.90
18934;DHT22;9599;53.706;10.384;2022-08-01T03:08:43;19.20;99.90
18934;DHT22;9599;53.706;10.384;2022-08-01T03:11:12;19.20;99.90
18934;DHT22;9599;53.706;10.384;2022-08-01T03:13:42;19.20;99.90
18934;DHT22;9599;53.706;10.384;2022-08-01T03:16:14;19.20;99.90
18934;DHT22;9599;53.706;10.384;2022-08-01T03:18:43;19.20;99.90
18934;DHT22;9599;53.706;10.384;2022-08-01T03:21:13;19.20;99.90
18934;DHT22;9599;53.706;10.384;2022-08-01T03:23:43;19.20;99.90
18934;DHT22;9599;53.706;10.384;2022-08-01T03:26:12;19.10;99.90
18934;DHT22;9599;53.706;10.384;2022-08-01T03:28:41;19.10;99.90
18934;DHT22;9599;53.706;10.384;2022-08-01T03:31:14;19.20;99.90
18934;DHT22;9599;53.706;10.384;2022-08-01T03:33:42;19.20;99.90
18934;DHT22;9599;53.706;10.384;2022-08-01T03:36:11;19.20;99.90
18934;DHT22;9599;53.706;10.384;2022-08-01T03:38:40;19.20;99.90
18934;DHT22;9599;53.706;10.384;2022-08-01T03:41:13;19.10;99.90
18934;DHT22;9599;53.706;10.384;2022-08-01T03:43:46;19.10;99.90
18934;DHT22;9599;53.706;10.384;2022-08-01T03:46:22;19.20;99.90
18934;DHT22;9599;53.706;10.384;2022-08-01T03:48:55;19.20;99.90
18934;DHT22;9599;53.706;10.384;2022-08-01T03:51:25;19.20;99.90
18934;DHT22;9599;53.706;10.384;2022-08-01T03:53:55;19.20;99.90
18934;DHT22;9599;53.706;10.384;2022-08-01T03:56:24;19.20;99.90
18934;DHT22;9599;53.706;10.384;2022-08-01T03:58:52;19.10;99.90
18934;DHT22;9599;53.706;10.384;2022-08-01T04:01:22;19.10;99.90
18934;DHT22;9599;53.706;10.384;2022-08-01T04:03:51;19.00;99.90
18934;DHT22;9599;53.706;10.384;2022-08-01T04:06:19;19.00;99.90
18934;DHT22;9599;53.706;10.384;2022-08-01T04:08:47;19.00;99.90
18934;DHT22;9599;53.706;10.384;2022-08-01T04:11:23;19.10;99.90
18934;DHT22;9599;53.706;10.384;2022-08-01T04:13:53;19.10;99.90
18934;DHT22;9599;53.706;10.384;2022-08-01T04:16:22;19.10;99.90
18934;DHT22;9599;53.706;10.384;2022-08-01T04:18:51;19.10;99.90
18934;DHT22;9599;53.706;10.384;2022-08-01T04:21:23;19.00;99.90
18934;DHT22;9599;53.706;10.384;2022-08-01T04:23:53;19.00;99.90
18934;DHT22;9599;53.706;10.384;2022-08-01T04:26:22;18.90;99.90
18934;DHT22;9599;53.706;10.384;2022-08-01T04:28:51;18.80;99.90
18934;DHT22;9599;53.706;10.384;2022-08-01T04:31:24;18.70;99.90
18934;DHT22;9599;53.706;10.384;2022-08-01T04:33:53;18.80;99.90
18934;DHT22;9599;53.706;10.384;2022-08-01T04:36:23;18.90;99.90
18934;DHT22;9599;53.706;10.384;2022-08-01T04:38:56;18.90;99.90
18934;DHT22;9599;53.706;10.384;2022-08-01T04:41:25;19.00;99.90
18934;DHT22;9599;53.706;10.384;2022-08-01T04:43:54;19.00;99.90
18934;DHT22;9599;53.706;10.384;2022-08-01T04:46:23;19.00;99.90
18934;DHT22;9599;53.706;10.384;2022-08-01T04:48:52;18.90;99.90
18934;DHT22;9599;53.706;10.384;2022-08-01T04:51:21;18.90;99.90
18934;DHT22;9599;53.706;10.384;2022-08-01T04:53:49;19.00;99.90
18934;DHT22;9599;53.706;10.384;2022-08-01T04:56:19;19.00;99.90
18934;DHT22;9599;53.706;10.384;2022-08-01T04:58:47;19.00;99.90
18934;DHT22;9599;53.706;10.384;2022-08-01T05:01:48;19.00;99.90
18934;DHT22;9599;53.706;10.384;2022-08-01T05:04:16;19.00;99.90
18934;DHT22;9599;53.706;10.384;2022-08-01T05:06:44;19.00;99.90
18934;DHT22;9599;53.706;10.384;2022-08-01T05:09:12;19.00;99.90
18934;DHT22;9599;53.706;10.384;2022-08-01T05:11:40;19.00;99.90
18934;DHT22;9599;53.706;10.384;2022-08-01T05:14:08;19.00;99.90
18934;DHT22;9599;53.706;10.384;2022-08-01T05:16:35;19.00;99.90
18934;DHT22;9599;53.706;10.384;2022-08-01T05:19:05;19.10;99.90
18934;DHT22;9599;53.706;10.384;2022-08-01T05:21:35;19.10;99.90
18934;DHT22;9599;53.706;10.384;2022-08-01T05:24:03;19.00;99.90
18934;DHT22;9599;53.706;10.384;2022-08-01T05:26:32;19.00;99.90
18934;DHT22;9599;53.706;10.384;2022-08-01T05:29:02;19.00;99.90
18934;DHT22;9599;53.706;10.384;2022-08-01T05:31:30;19.00;99.90
18934;DHT22;9599;53.706;10.384;2022-08-01T05:34:00;19.00;99.90
18934;DHT22;9599;53.706;10.384;2022-08-01T05:36:30;18.80;99.90
18934;DHT22;9599;53.706;10.384;2022-08-01T05:38:58;18.60;99.90
18934;DHT22;9599;53.706;10.384;2022-08-01T05:41:26;18.60;99.90
18934;DHT22;9599;53.706;10.384;2022-08-01T05:43:54;18.70;99.90
18934;DHT22;9599;53.706;10.384;2022-08-01T05:46:22;18.70;99.90
18934;DHT22;9599;53.706;10.384;2022-08-01T05:48:53;18.80;99.90
18934;DHT22;9599;53.706;10.384;2022-08-01T05:51:21;18.90;99.90
18934;DHT22;9599;53.706;10.384;2022-08-01T05:53:51;18.90;99.90
18934;DHT22;9599;53.706;10.384;2022-08-01T05:56:19;19.00;99.90
18934;DHT22;9599;53.706;10.384;2022-08-01T05:58:48;19.00;99.90
18934;DHT22;9599;53.706;10.384;2022-08-01T06:01:17;19.00;99.90
18934;DHT22;9599;53.706;10.384;2022-08-01T06:03:46;19.00;99.90
18934;DHT22;9599;53.706;10.384;2022-08-01T06:06:14;19.00;99.90
18934;DHT22;9599;53.706;10.384;2022-08-01T06:08:42;19.00;99.90
18934;DHT22;9599;53.706;10.384;2022-08-01T06:11:11;19.10;99.90
18934;DHT22;9599;53.706;10.384;2022-08-01T06:13:39;19.10;99.90
18934;DHT22;9599;53.706;10.384;2022-08-01T06:16:14;19.20;99.90
18934;DHT22;9599;53.706;10.384;2022-08-01T06:18:42;19.20;99.90
18934;DHT22;9599;53.706;10.384;2022-08-01T06:21:10;19.20;99.90
18934;DHT22;9599;53.706;10.384;2022-08-01T06:23:38;19.20;99.90
18934;DHT22;9599;53.706;10.384;2022-08-01T06:26:08;19.10;99.90
18934;DHT22;9599;53.706;10.384;2022-08-01T06:28:38;19.00;99.90
18934;DHT22;9599;53.706;10.384;2022-08-01T06:31:06;19.00;99.90
18934;DHT22;9599;53.706;10.384;2022-08-01T06:33:34;18.90;99.90
18934;DHT22;9599;53.706;10.384;2022-08-01T06:36:02;18.90;99.90
18934;DHT22;9599;53.706;10.384;2022-08-01T06:38:30;19.00;99.90
18934;DHT22;9599;53.706;10.384;2022-08-01T06:40:58;18.90;99.90
18934;DHT22;9599;53.706;10.384;2022-08-01T06:43:26;18.80;99.90
18934;DHT22;9599;53.706;10.384;2022-08-01T06:45:55;18.90;99.90
18934;DHT22;9599;53.706;10.384;2022-08-01T06:48:23;18.90;99.90
18934;DHT22;9599;53.706;10.384;2022-08-01T06:50:51;19.00;99.90
18934;DHT22;9599;53.706;10.384;2022-08-01T06:53:35;18.80;99.90
18934;DHT22;9599;53.706;10.384;2022-08-01T06:56:04;18.90;99.90
18934;DHT22;9599;53.706;10.384;2022-08-01T06:58:33;18.90;99.90
18934;DHT22;9599;53.706;10.384;2022-08-01T07:01:03;19.00;99.90
18934;DHT22;9599;53.706;10.384;2022-08-01T07:03:34;19.10;99.90
18934;DHT22;9599;53.706;10.384;2022-08-01T07:06:21;19.10;99.90
18934;DHT22;9599;53.706;10.384;2022-08-01T07:08:49;19.00;99.90
18934;DHT22;9599;53.706;10.384;2022-08-01T07:11:17;19.10;99.90
18934;DHT22;9599;53.706;10.384;2022-08-01T07:13:46;19.20;99.90
18934;DHT22;9599;53.706;10.384;2022-08-01T07:16:16;19.10;99.90
18934;DHT22;9599;53.706;10.384;2022-08-01T07:18:44;19.10;99.90
18934;DHT22;9599;53.706;10.384;2022-08-01T07:21:12;19.00;99.90
18934;DHT22;9599;53.706;10.384;2022-08-01T07:24:00;18.90;99.90
18934;DHT22;9599;53.706;10.384;2022-08-01T07:26:39;19.00;99.90
18934;DHT22;9599;53.706;10.384;2022-08-01T07:29:20;19.00;99.90
18934;DHT22;9599;53.706;10.384;2022-08-01T07:31:50;19.00;99.90
18934;DHT22;9599;53.706;10.384;2022-08-01T07:34:18;19.00;99.90
18934;DHT22;9599;53.706;10.384;2022-08-01T07:36:46;19.00;99.90
18934;DHT22;9599;53.706;10.384;2022-08-01T07:39:14;19.00;99.90
18934;DHT22;9599;53.706;10.384;2022-08-01T07:41:42;19.00;99.90
18934;DHT22;9599;53.706;10.384;2022-08-01T07:44:30;18.90;99.90
18934;DHT22;9599;53.706;10.384;2022-08-01T07:46:59;18.90;99.90
18934;DHT22;9599;53.706;10.384;2022-08-01T07:49:27;18.80;99.90
18934;DHT22;9599;53.706;10.384;2022-08-01T07:51:55;18.90;99.90
18934;DHT22;9599;53.706;10.384;2022-08-01T07:54:30;19.00;99.90
18934;DHT22;9599;53.706;10.384;2022-08-01T07:57:00;19.00;99.90
18934;DHT22;9599;53.706;10.384;2022-08-01T07:59:28;19.10;99.90
18934;DHT22;9599;53.706;10.384;2022-08-01T08:01:56;19.20;99.90
18934;DHT22;9599;53.706;10.384;2022-08-01T08:04:25;19.30;99.90
18934;DHT22;9599;53.706;10.384;2022-08-01T08:06:54;19.20;99.90
18934;DHT22;9599;53.706;10.384;2022-08-01T08:09:22;19.30;99.90
18934;DHT22;9599;53.706;10.384;2022-08-01T08:11:50;19.50;99.90
18934;DHT22;9599;53.706;10.384;2022-08-01T08:14:18;19.60;99.90
18934;DHT22;9599;53.706;10.384;2022-08-01T08:16:58;19.70;99.90
18934;DHT22;9599;53.706;10.384;2022-08-01T08:19:29;19.60;99.90
18934;DHT22;9599;53.706;10.384;2022-08-01T08:22:05;19.60;99.90
18934;DHT22;9599;53.706;10.384;2022-08-01T08:24:34;19.60;99.90
18934;DHT22;9599;53.706;10.384;2022-08-01T08:27:11;19.70;99.90
18934;DHT22;9599;53.706;10.384;2022-08-01T08:29:39;19.90;99.90
18934;DHT22;9599;53.706;10.384;2022-08-01T08:32:08;20.00;99.90
18934;DHT22;9599;53.706;10.384;2022-08-01T08:34:38;20.10;99.90
18934;DHT22;9599;53.706;10.384;2022-08-01T08:37:06;20.10;99.90
18934;DHT22;9599;53.706;10.384;2022-08-01T08:39:35;20.20;99.90
18934;DHT22;9599;53.706;10.384;2022-08-01T08:42:09;20.30;99.90
18934;DHT22;9599;53.706;10.384;2022-08-01T08:44:38;20.30;99.90
18934;DHT22;9599;53.706;10.384;2022-08-01T08:47:11;20.30;99.90
18934;DHT22;9599;53.706;10.384;2022-08-01T08:49:49;20.20;99.90
18934;DHT22;9599;53.706;10.384;2022-08-01T08:52:19;20.40;99.90
18934;DHT22;9599;53.706;10.384;2022-08-01T08:54:48;20.40;99.90
18934;DHT22;9599;53.706;10.384;2022-08-01T08:57:19;20.30;99.90
18934;DHT22;9599;53.706;10.384;2022-08-01T08:59:47;20.20;99.90
18934;DHT22;9599;53.706;10.384;2022-08-01T09:02:18;20.30;99.90
18934;DHT22;9599;53.706;10.384;2022-08-01T09:04:49;20.20;99.90
18934;DHT22;9599;53.706;10.384;2022-08-01T09:07:17;19.90;99.90
18934;DHT22;9599;53.706;10.384;2022-08-01T09:09:44;19.90;99.90
18934;DHT22;9599;53.706;10.384;2022-08-01T09:12:16;19.80;99.90
18934;DHT22;9599;53.706;10.384;2022-08-01T09:14:46;19.60;99.90
18934;DHT22;9599;53.706;10.384;2022-08-01T09:17:14;19.50;99.90
18934;DHT22;9599;53.706;10.384;2022-08-01T09:19:44;19.50;99.90
18934;DHT22;9599;53.706;10.384;2022-08-01T09:22:17;19.50;99.90
18934;DHT22;9599;53.706;10.384;2022-08-01T09:24:58;19.50;99.90
18934;DHT22;9599;53.706;10.384;2022-08-01T09:27:26;19.50;99.90
18934;DHT22;9599;53.706;10.384;2022-08-01T09:30:08;19.70;99.90
18934;DHT22;9599;53.706;10.384;2022-08-01T09:32:53;19.70;99.90
18934;DHT22;9599;53.706;10.384;2022-08-01T09:35:23;19.80;99.90
18934;DHT22;9599;53.706;10.384;2022-08-01T09:38:14;19.90;99.90
18934;DHT22;9599;53.706;10.384;2022-08-01T09:40:50;19.90;99.90
18934;DHT22;9599;53.706;10.384;2022-08-01T09:43:20;19.90;99.90
18934;DHT22;9599;53.706;10.384;2022-08-01T09:45:49;20.10;99.90
18934;DHT22;9599;53.706;10.384;2022-08-01T09:48:20;20.50;99.90
18934;DHT22;9599;53.706;10.384;2022-08-01T09:50:56;20.70;99.90
18934;DHT22;9599;53.706;10.384;2022-08-01T09:53:46;20.70;99.90
18934;DHT22;9599;53.706;10.384;2022-08-01T09:56:19;20.80;99.90
18934;DHT22;9599;53.706;10.384;2022-08-01T09:58:53;21.10;99.90
18934;DHT22;9599;53.706;10.384;2022-08-01T10:01:28;21.20;99.90
18934;DHT22;9599;53.706;10.384;2022-08-01T10:04:06;21.50;99.90
18934;DHT22;9599;53.706;10.384;2022-08-01T10:06:36;21.60;99.90
18934;DHT22;9599;53.706;10.384;2022-08-01T10:09:06;21.90;99.90
18934;DHT22;9599;53.706;10.384;2022-08-01T10:11:34;21.80;99.90
18934;DHT22;9599;53.706;10.384;2022-08-01T10:14:06;21.80;99.90
18934;DHT22;9599;53.706;10.384;2022-08-01T10:16:35;21.60;99.90
18934;DHT22;9599;53.706;10.384;2022-08-01T10:19:07;21.90;99.90
18934;DHT22;9599;53.706;10.384;2022-08-01T10:21:41;22.30;99.90
18934;DHT22;9599;53.706;10.384;2022-08-01T10:24:27;22.60;99.90
18934;DHT22;9599;53.706;10.384;2022-08-01T10:26:58;22.70;99.90
18934;DHT22;9599;53.706;10.384;2022-08-01T10:29:37;22.90;99.90
18934;DHT22;9599;53.706;10.384;2022-08-01T10:32:13;22.90;99.90
18934;DHT22;9599;53.706;10.384;2022-08-01T10:34:41;23.00;99.90
18934;DHT22;9599;53.706;10.384;2022-08-01T10:37:12;23.00;99.90
18934;DHT22;9599;53.706;10.384;2022-08-01T10:39:43;23.00;99.90
18934;DHT22;9599;53.706;10.384;2022-08-01T10:42:12;23.10;99.90
18934;DHT22;9599;53.706;10.384;2022-08-01T10:44:42;23.00;99.90
18934;DHT22;9599;53.706;10.384;2022-08-01T10:47:17;23.10;99.90
18934;DHT22;9599;53.706;10.384;2022-08-01T10:49:58;23.20;99.90
18934;DHT22;9599;53.706;10.384;2022-08-01T10:52:30;23.10;99.90
18934;DHT22;9599;53.706;10.384;2022-08-01T10:55:08;23.20;99.90
18934;DHT22;9599;53.706;10.384;2022-08-01T10:57:44;23.40;99.90
18934;DHT22;9599;53.706;10.384;2022-08-01T11:00:19;23.40;99.90
18934;DHT22;9599;53.706;10.384;2022-08-01T11:02:57;23.40;99.90
18934;DHT22;9599;53.706;10.384;2022-08-01T11:05:30;23.40;99.90
18934;DHT22;9599;53.706;10.384;2022-08-01T11:08:02;23.50;99.90
18934;DHT22;9599;53.706;10.384;2022-08-01T11:10:36;23.30;99.90
18934;DHT22;9599;53.706;10.384;2022-08-01T11:13:06;23.40;99.90
18934;DHT22;9599;53.706;10.384;2022-08-01T11:15:35;23.50;99.90
18934;DHT22;9599;53.706;10.384;2022-08-01T11:18:32;23.50;99.90
18934;DHT22;9599;53.706;10.384;2022-08-01T11:21:04;23.80;99.90
18934;DHT22;9599;53.706;10.384;2022-08-01T11:23:52;23.70;99.90
18934;DHT22;9599;53.706;10.384;2022-08-01T11:26:24;23.70;99.90
18934;DHT22;9599;53.706;10.384;2022-08-01T11:29:14;23.90;99.90
18934;DHT22;9599;53.706;10.384;2022-08-01T11:31:48;23.70;99.90
18934;DHT22;9599;53.706;10.384;2022-08-01T11:34:16;23.60;99.90
18934;DHT22;9599;53.706;10.384;2022-08-01T11:36:45;23.70;99.90
18934;DHT22;9599;53.706;10.384;2022-08-01T11:39:29;23.60;99.90
18934;DHT22;9599;53.706;10.384;2022-08-01T11:42:19;23.60;99.90
18934;DHT22;9599;53.706;10.384;2022-08-01T11:44:48;23.90;99.90
18934;DHT22;9599;53.706;10.384;2022-08-01T11:47:17;24.00;99.90
18934;DHT22;9599;53.706;10.384;2022-08-01T11:49:48;24.00;99.90
18934;DHT22;9599;53.706;10.384;2022-08-01T11:52:25;23.80;99.90
18934;DHT22;9599;53.706;10.384;2022-08-01T11:54:55;23.70;99.90
18934;DHT22;9599;53.706;10.384;2022-08-01T11:57:27;23.90;99.90
18934;DHT22;9599;53.706;10.384;2022-08-01T12:00:03;23.80;99.90
18934;DHT22;9599;53.706;10.384;2022-08-01T12:02:40;23.60;99.90
18934;DHT22;9599;53.706;10.384;2022-08-01T12:05:12;23.90;99.90
18934;DHT22;9599;53.706;10.384;2022-08-01T12:07:42;23.90;99.90
18934;DHT22;9599;53.706;10.384;2022-08-01T12:10:13;23.90;99.90
18934;DHT22;9599;53.706;10.384;2022-08-01T12:12:45;23.90;99.90
18934;DHT22;9599;53.706;10.384;2022-08-01T12:15:13;23.90;99.90
18934;DHT22;9599;53.706;10.384;2022-08-01T12:17:43;24.10;99.90
18934;DHT22;9599;53.706;10.384;2022-08-01T12:20:24;24.30;99.90
18934;DHT22;9599;53.706;10.384;2022-08-01T12:22:56;24.20;99.90
18934;DHT22;9599;53.706;10.384;2022-08-01T12:25:24;24.20;99.90
18934;DHT22;9599;53.706;10.384;2022-08-01T12:27:54;24.30;99.90
18934;DHT22;9599;53.706;10.384;2022-08-01T12:30:24;24.30;99.90
18934;DHT22;9599;53.706;10.384;2022-08-01T12:32:54;24.30;99.90
18934;DHT22;9599;53.706;10.384;2022-08-01T12:35:24;24.10;99.90
18934;DHT22;9599;53.706;10.384;2022-08-01T12:37:53;24.10;99.90
18934;DHT22;9599;53.706;10.384;2022-08-01T12:40:23;23.90;99.90
18934;DHT22;9599;53.706;10.384;2022-08-01T12:42:55;24.00;99.90
18934;DHT22;9599;53.706;10.384;2022-08-01T12:45:24;24.20;99.90
18934;DHT22;9599;53.706;10.384;2022-08-01T12:47:54;24.20;99.90
18934;DHT22;9599;53.706;10.384;2022-08-01T12:50:26;24.00;99.90
18934;DHT22;9599;53.706;10.384;2022-08-01T12:52:55;23.80;99.90
18934;DHT22;9599;53.706;10.384;2022-08-01T12:55:24;23.80;99.90
18934;DHT22;9599;53.706;10.384;2022-08-01T12:58:06;23.70;99.90
18934;DHT22;9599;53.706;10.384;2022-08-01T13:00:42;23.60;99.90
18934;DHT22;9599;53.706;10.384;2022-08-01T13:03:13;23.70;99.90
18934;DHT22;9599;53.706;10.384;2022-08-01T13:05:43;23.80;99.90
18934;DHT22;9599;53.706;10.384;2022-08-01T13:08:13;23.80;99.90
18934;DHT22;9599;53.706;10.384;2022-08-01T13:10:43;23.70;99.90
18934;DHT22;9599;53.706;10.384;2022-08-01T13:13:14;23.60;99.90
18934;DHT22;9599;53.706;10.384;2022-08-01T13:16:04;23.50;99.90
18934;DHT22;9599;53.706;10.384;2022-08-01T13:18:35;23.50;99.70
18934;DHT22;9599;53.706;10.384;2022-08-01T13:21:13;23.60;99.90
18934;DHT22;9599;53.706;10.384;2022-08-01T13:24:00;23.80;99.90
18934;DHT22;9599;53.706;10.384;2022-08-01T13:26:44;23.70;99.40
18934;DHT22;9599;53.706;10.384;2022-08-01T13:29:15;23.80;98.60
18934;DHT22;9599;53.706;10.384;2022-08-01T13:31:44;23.50;99.10
18934;DHT22;9599;53.706;10.384;2022-08-01T13:34:12;23.40;99.20
18934;DHT22;9599;53.706;10.384;2022-08-01T13:36:40;23.40;98.90
18934;DHT22;9599;53.706;10.384;2022-08-01T13:39:15;23.40;99.20
18934;DHT22;9599;53.706;10.384;2022-08-01T13:42:01;23.40;98.80
18934;DHT22;9599;53.706;10.384;2022-08-01T13:44:31;23.50;99.10
18934;DHT22;9599;53.706;10.384;2022-08-01T13:47:00;23.70;99.20
18934;DHT22;9599;53.706;10.384;2022-08-01T13:49:42;23.90;99.60
18934;DHT22;9599;53.706;10.384;2022-08-01T13:52:10;23.80;98.80
18934;DHT22;9599;53.706;10.384;2022-08-01T13:54:38;23.60;97.80
18934;DHT22;9599;53.706;10.384;2022-08-01T13:57:06;23.50;98.40
18934;DHT22;9599;53.706;10.384;2022-08-01T13:59:36;23.50;98.20
18934;DHT22;9599;53.706;10.384;2022-08-01T14:02:04;23.40;96.70
18934;DHT22;9599;53.706;10.384;2022-08-01T14:04:32;23.30;97.40
18934;DHT22;9599;53.706;10.384;2022-08-01T14:07:00;23.30;97.50
18934;DHT22;9599;53.706;10.384;2022-08-01T14:09:37;23.30;97.20
18934;DHT22;9599;53.706;10.384;2022-08-01T14:12:25;23.20;97.40
18934;DHT22;9599;53.706;10.384;2022-08-01T14:14:55;23.20;97.60
18934;DHT22;9599;53.706;10.384;2022-08-01T14:17:23;23.10;97.80
18934;DHT22;9599;53.706;10.384;2022-08-01T14:19:54;23.20;98.20
18934;DHT22;9599;53.706;10.384;2022-08-01T14:22:23;23.30;98.10
18934;DHT22;9599;53.706;10.384;2022-08-01T14:24:51;23.20;97.50
18934;DHT22;9599;53.706;10.384;2022-08-01T14:27:25;23.10;98.80
18934;DHT22;9599;53.706;10.384;2022-08-01T14:29:54;23.10;97.80
18934;DHT22;9599;53.706;10.384;2022-08-01T14:32:29;23.10;98.10
18934;DHT22;9599;53.706;10.384;2022-08-01T14:34:57;23.20;97.80
18934;DHT22;9599;53.706;10.384;2022-08-01T14:37:25;23.10;96.80
18934;DHT22;9599;53.706;10.384;2022-08-01T14:39:57;23.10;97.40
18934;DHT22;9599;53.706;10.384;2022-08-01T14:42:25;23.30;98.10
18934;DHT22;9599;53.706;10.384;2022-08-01T14:44:54;23.30;98.00
18934;DHT22;9599;53.706;10.384;2022-08-01T14:47:22;23.20;98.40
18934;DHT22;9599;53.706;10.384;2022-08-01T14:49:51;23.20;98.10
18934;DHT22;9599;53.706;10.384;2022-08-01T14:52:19;23.30;97.90
18934;DHT22;9599;53.706;10.384;2022-08-01T14:54:48;23.20;97.50
18934;DHT22;9599;53.706;10.384;2022-08-01T14:57:15;23.30;98.00
18934;DHT22;9599;53.706;10.384;2022-08-01T14:59:45;23.30;98.00
18934;DHT22;9599;53.706;10.384;2022-08-01T15:02:15;23.40;97.10
18934;DHT22;9599;53.706;10.384;2022-08-01T15:04:44;23.20;96.90
18934;DHT22;9599;53.706;10.384;2022-08-01T15:07:12;23.10;96.30
18934;DHT22;9599;53.706;10.384;2022-08-01T15:09:40;23.00;96.10
18934;DHT22;9599;53.706;10.384;2022-08-01T15:12:09;22.90;96.80
18934;DHT22;9599;53.706;10.384;2022-08-01T15:14:38;23.00;97.50
18934;DHT22;9599;53.706;10.384;2022-08-01T15:17:20;23.20;97.30
18934;DHT22;9599;53.706;10.384;2022-08-01T15:19:52;23.10;96.10
18934;DHT22;9599;53.706;10.384;2022-08-01T15:22:20;23.00;95.90
18934;DHT22;9599;53.706;10.384;2022-08-01T15:24:50;22.80;96.40
18934;DHT22;9599;53.706;10.384;2022-08-01T15:27:23;22.90;96.60
18934;DHT22;9599;53.706;10.384;2022-08-01T15:29:52;22.90;96.40
18934;DHT22;9599;53.706;10.384;2022-08-01T15:32:22;22.90;96.40
18934;DHT22;9599;53.706;10.384;2022-08-01T15:34:50;22.80;96.30
18934;DHT22;9599;53.706;10.384;2022-08-01T15:37:20;22.70;96.90
18934;DHT22;9599;53.706;10.384;2022-08-01T15:39:48;22.70;96.60
18934;DHT22;9599;53.706;10.384;2022-08-01T15:42:22;22.70;96.50
18934;DHT22;9599;53.706;10.384;2022-08-01T15:44:53;22.70;96.50
18934;DHT22;9599;53.706;10.384;2022-08-01T15:47:22;22.60;96.90
18934;DHT22;9599;53.706;10.384;2022-08-01T15:49:51;22.60;97.00
18934;DHT22;9599;53.706;10.384;2022-08-01T15:52:19;22.70;96.70
18934;DHT22;9599;53.706;10.384;2022-08-01T15:54:56;22.80;96.60
18934;DHT22;9599;53.706;10.384;2022-08-01T15:57:24;22.90;96.90